WetterOnline ( https://www.wetteronline.de )

Wetter aktuell Todtnau

Aktuelles Wetter: Feldberg/Schwarzwald (1493m)

6-stündlich | Neueste Meldungen
Ortszeit Temperatur Wetter
So, 14.07. 14:00 14.6° C wolkig
So, 14.07. 8:00 9.8° C wolkig
So, 14.07. 2:00 9.8° C wolkenlos
Sa, 13.07. 20:00 11.4° C wolkenlos
Sa, 13.07. 14:00 10.3° C bewölkt
Sa, 13.07. 8:00 7.3° C Nebel
Sa, 13.07. 2:00 8.4° C Nebel
Fr, 12.07. 20:00 11.1° C Nebel
Ortszeit Temperatur Wetter
So, 14.07. 16:30 14.6° C wolkig
So, 14.07. 16:20 14.6° C wolkig
So, 14.07. 16:10 14.2° C bewölkt
So, 14.07. 16:00 14.2° C bedeckt
So, 14.07. 15:50 14.2° C bedeckt
So, 14.07. 15:40 14.3° C bedeckt
So, 14.07. 15:30 14.6° C bedeckt
So, 14.07. 15:00 14.5° C wolkig
So, 14.07. 14:30 14.3° C bedeckt
So, 14.07. 14:00 14.6° C wolkig
So, 14.07. 13:30 13.9° C wolkig
Ortszeit Relative Feuchte Sichtweite
So, 14.07. 14:00 62% 55 km
So, 14.07. 8:00 71% 60 km
So, 14.07. 2:00 67% >70 km
Sa, 13.07. 20:00 57% >70 km
Sa, 13.07. 14:00 74% 45 km
Sa, 13.07. 8:00 100% 0.7 km
Sa, 13.07. 2:00 100% 100 m
Fr, 12.07. 20:00 99% 2.9 km
Ortszeit Relative Feuchte Sichtweite
So, 14.07. 16:30 63% 50 km
So, 14.07. 16:20 63% -
So, 14.07. 16:10 59% -
So, 14.07. 16:00 57% >70 km
So, 14.07. 15:50 57% -
So, 14.07. 15:40 56% -
So, 14.07. 15:30 56% 60 km
So, 14.07. 15:00 62% >70 km
So, 14.07. 14:30 65% 60 km
So, 14.07. 14:00 62% 55 km
So, 14.07. 13:30 62% 60 km
Ortszeit Niederschlagsmenge Niederschlagsart
So, 14.07. 14:00 0.0 l/m2 in 6 Std. -
So, 14.07. 8:00 0.0 l/m2 in 12 Std. -
So, 14.07. 2:00 0.0 l/m2 in 6 Std. -
Sa, 13.07. 20:00 0.0 l/m2 in 12 Std. -
Sa, 13.07. 14:00 0.0 l/m2 in 6 Std. -
Sa, 13.07. 8:00 3 l/m2 in 12 Std. Sprühregen
Sa, 13.07. 2:00 3 l/m2 in 6 Std. Regen
Fr, 12.07. 20:00 4 l/m2 in 12 Std. Regen
Ortszeit Niederschlagsmenge Niederschlagsart
So, 14.07. 16:30 0.0 l/m2 in 30 Min -
So, 14.07. 16:20 keine Meldung -
So, 14.07. 16:10 keine Meldung -
So, 14.07. 16:00 0.0 l/m2 in 1 Std. -
So, 14.07. 15:50 keine Meldung -
So, 14.07. 15:40 keine Meldung -
So, 14.07. 15:30 0.0 l/m2 in 30 Min -
So, 14.07. 15:00 0.0 l/m2 in 1 Std. -
So, 14.07. 14:30 0.0 l/m2 in 30 Min -
So, 14.07. 14:00 0.0 l/m2 in 1 Std. -
So, 14.07. 13:30 0.0 l/m2 in 30 Min -
Ortszeit Stärke Spitze Richtung
km/h Bft. km/h Grad Sektor
So, 14.07. 14:00 19 3 33 210° SW
So, 14.07. 8:00 11 2 20 200° S
So, 14.07. 2:00 14 3 22 200° S
Sa, 13.07. 20:00 14 3 29 220° SW
Sa, 13.07. 14:00 13 3 33 210° SW
Sa, 13.07. 8:00 18 3 32 240° SW
Sa, 13.07. 2:00 18 3 58 270° W
Fr, 12.07. 20:00 40 6 58 240° SW
Ortszeit Stärke Spitze Richtung
km/h Bft. km/h Grad Sektor
So, 14.07. 16:30 13 3 26 240° SW
So, 14.07. 16:20 13 3 - 240° SW
So, 14.07. 16:10 14 3 - 250° W
So, 14.07. 16:00 18 3 43 270° W
So, 14.07. 15:50 18 3 - 270° W
So, 14.07. 15:40 24 4 - 280° W
So, 14.07. 15:30 26 4 43 270° W
So, 14.07. 15:00 14 3 32 240° SW
So, 14.07. 14:30 20 4 31 210° SW
So, 14.07. 14:00 19 3 33 210° SW
So, 14.07. 13:30 17 3 31 210° SW
Ortszeit Untergrenze Bedeckung Gattung
total tief tief mittel hoch
So, 14.07. 14:00 6900 m 7/8 6/8 - - -
So, 14.07. 8:00 630 m 6/8 6/8 - - -
So, 14.07. 2:00 - 0/8 0/8 - - -
Sa, 13.07. 20:00 - 0/8 0/8 - - -
Sa, 13.07. 14:00 510 m 7/8 7/8 - - -
Sa, 13.07. 8:00 60 m 7/8 7/8 - - -
Sa, 13.07. 2:00 <30 m 8/8 0/8 - - -
Fr, 12.07. 20:00 <30 m 8/8 0/8 - - -
Ortszeit Bedeckungsgrad in Achtel und Wolkenuntergrenze
So, 14.07. 16:30 2(2700m) 7(3300m) 7(5400m)
So, 14.07. 16:20 2(2700m) 7(3300m) 7(5400m)
So, 14.07. 16:10 7
So, 14.07. 16:00 5(3000m) 8(3600m)
So, 14.07. 15:50 5(3000m) 8(3600m)
So, 14.07. 15:40 8
So, 14.07. 15:30 8(4500m)
So, 14.07. 15:00 5(4500m) 7(5700m) 8(6300m)
So, 14.07. 14:30 8(6600m)
So, 14.07. 14:00 6(6900m) 7(9000m)
So, 14.07. 13:30 4(6900m) 6(9000m)
Ortszeit Stationsdruck (hPa) Tendenz (hPa in 3 Std.)
So, 14.07. 14:00 851 + 0,4
So, 14.07. 8:00 850 + 0,4
So, 14.07. 2:00 850 0,0
Sa, 13.07. 20:00 850 0,0
Sa, 13.07. 14:00 850 + 0,3
Sa, 13.07. 8:00 849 + 0,4
Sa, 13.07. 2:00 850 + 0,8
Fr, 12.07. 20:00 849 - 0,5
Ortszeit Stationsdruck (hPa) Tendenz (hPa in 3 Std.)
So, 14.07. 16:30 852 + 0,4
So, 14.07. 16:20 852 keine Meldung
So, 14.07. 16:10 851 keine Meldung
So, 14.07. 16:00 851 + 0,4
So, 14.07. 15:50 851 keine Meldung
So, 14.07. 15:40 851 keine Meldung
So, 14.07. 15:30 851 + 0,3
So, 14.07. 15:00 851 + 0,3
So, 14.07. 14:30 851 + 0,5
So, 14.07. 14:00 851 + 0,4
So, 14.07. 13:30 851 + 0,4
Ortszeit Schneehöhe (cm)
So, 14.07. 14:00 0
So, 14.07. 8:00 0
So, 14.07. 2:00 0
Sa, 13.07. 20:00 0
Sa, 13.07. 14:00 0
Sa, 13.07. 8:00 0
Sa, 13.07. 2:00 0
Fr, 12.07. 20:00 0
Ortszeit Schneehöhe (cm)
So, 14.07. 16:30 0
So, 14.07. 16:20 0
So, 14.07. 16:10 -
So, 14.07. 16:00 0
So, 14.07. 15:50 0
So, 14.07. 15:40 -
So, 14.07. 15:30 0
So, 14.07. 15:00 0
So, 14.07. 14:30 0
So, 14.07. 14:00 0
So, 14.07. 13:30 0
Link zu dieser Seite / Seite empfehlen

Das Wetter in ...